Time;durP1;ratioP1;P1;durP2;ratioP2;P2;SDS_P1;SDS_P2;PMS_P1;PMS_P2;Temp;Humidity;BMP_temperature;BMP_pressure;BME280_temperature;BME280_humidity;BME280_pressure;Samples;Min_cycle;Max_cycle;Signal;HPM_P1;HPM_P2
2021/12/21 00:01:19;;;;;;;60.75;16.48;;;-1.70;99.90;;;;;;4344248;28;10001384;-75
2021/12/21 00:03:45;;;;;;;57.25;16.73;;;-1.60;99.90;;;;;;5058586;28;20390;-75
2021/12/21 00:06:12;;;;;;;90.63;17.08;;;-1.40;99.90;;;;;;5050003;28;20091;-75
2021/12/21 00:08:38;;;;;;;50.40;14.65;;;-1.20;99.90;;;;;;5051309;28;20021;-74
2021/12/21 00:11:04;;;;;;;29.20;14.73;;;-1.00;99.90;;;;;;5060338;28;20488;-74
2021/12/21 00:16:11;;;;;;;31.83;15.02;;;-0.80;99.90;;;;;;5056179;28;20472;-74
2021/12/21 00:21:23;;;;;;;16.90;9.70;;;-0.60;99.90;;;;;;5054317;28;20028;-75
2021/12/21 00:23:56;;;;;;;34.13;13.02;;;-0.70;99.90;;;;;;5058572;28;20500;-75
2021/12/21 00:26:22;;;;;;;31.13;14.10;;;-0.80;99.90;;;;;;5052371;28;20024;-74
2021/12/21 00:31:17;;;;;;;37.83;13.70;;;-0.90;99.90;;;;;;5056176;28;20384;-74
2021/12/21 00:33:46;;;;;;;21.98;12.43;;;-0.90;99.90;;;;;;5036749;28;20124;-75
2021/12/21 00:36:17;;;;;;;26.25;14.38;;;-0.80;99.90;;;;;;5026125;28;20440;-74
2021/12/21 00:38:47;;;;;;;31.05;15.55;;;-0.90;99.90;;;;;;5030394;28;20029;-74
2021/12/21 00:41:14;;;;;;;28.98;14.60;;;-1.00;99.90;;;;;;5019681;28;20030;-75
2021/12/21 00:43:40;;;;;;;28.35;15.20;;;-1.20;99.90;;;;;;5020715;28;20029;-75
2021/12/21 00:46:07;;;;;;;27.88;15.68;;;-1.40;99.90;;;;;;5012599;28;20393;-75
2021/12/21 00:48:34;;;;;;;31.92;15.50;;;-1.50;99.90;;;;;;5017192;28;20036;-74
2021/12/21 00:51:05;;;;;;;37.25;15.77;;;-1.60;99.90;;;;;;5018710;28;20037;-75
2021/12/21 00:53:34;;;;;;;29.38;15.38;;;-1.50;99.90;;;;;;5012966;28;20044;-75
2021/12/21 00:56:01;;;;;;;28.10;15.10;;;-1.30;99.90;;;;;;5014020;28;20041;-74
2021/12/21 00:58:27;;;;;;;27.08;14.88;;;-1.20;99.90;;;;;;5018744;28;20026;-75
2021/12/21 01:00:53;;;;;;;38.83;15.38;;;-1.10;99.90;;;;;;5015675;28;20060;-75
2021/12/21 01:03:20;;;;;;;29.33;14.00;;;-1.00;99.90;;;;;;5018877;28;20026;-75
2021/12/21 01:05:57;;;;;;;40.88;14.45;;;-1.00;99.90;;;;;;5015991;28;20030;-74
2021/12/21 01:08:27;;;;;;;50.42;15.95;;;-0.90;99.90;;;;;;5015221;28;20038;-75
2021/12/21 01:13:35;;;;;;;37.70;16.27;;;-0.90;99.90;;;;;;5015068;28;20018;-74
2021/12/21 01:16:14;;;;;;;72.15;15.10;;;-0.80;99.90;;;;;;5016198;28;20032;-74
2021/12/21 01:27:04;;;;;;;42.72;15.32;;;-0.80;99.90;;;;;;5015100;28;20200;-75
2021/12/21 01:32:20;;;;;;;68.03;14.00;;;-0.90;99.90;;;;;;5018704;28;20037;-75
2021/12/21 01:34:59;;;;;;;55.88;14.75;;;-0.90;99.90;;;;;;5010667;28;20441;-74
2021/12/21 01:37:52;;;;;;;52.03;15.77;;;-0.90;99.90;;;;;;5015056;28;20042;-74
2021/12/21 01:43:22;;;;;;;39.75;14.95;;;-0.80;99.90;;;;;;5021882;28;20026;-74
2021/12/21 01:51:18;;;;;;;27.30;14.10;;;-0.90;99.90;;;;;;5012408;28;20665;-74
2021/12/21 01:53:45;;;;;;;24.33;13.02;;;-0.90;99.90;;;;;;5015187;28;20031;-73
2021/12/21 01:56:11;;;;;;;27.05;13.57;;;-0.90;99.90;;;;;;5014801;28;20408;-74
2021/12/21 01:58:39;;;;;;;26.88;14.60;;;-0.90;99.90;;;;;;5015735;28;20034;-74
2021/12/21 02:01:08;;;;;;;31.77;14.57;;;-0.90;99.90;;;;;;5017399;28;20056;-74
2021/12/21 02:03:34;;;;;;;25.40;13.48;;;-0.90;99.90;;;;;;5018709;28;20030;-74
2021/12/21 02:06:00;;;;;;;29.23;13.93;;;-1.00;99.90;;;;;;5014500;28;20030;-74
2021/12/21 02:08:26;;;;;;;26.23;12.50;;;-1.10;99.90;;;;;;5012019;28;20084;-74
2021/12/21 02:10:51;;;;;;;27.60;13.00;;;-1.20;99.90;;;;;;5015396;28;20563;-74
2021/12/21 02:13:17;;;;;;;26.80;13.18;;;-1.30;99.90;;;;;;5019003;28;20033;-74
2021/12/21 02:15:43;;;;;;;23.42;13.00;;;-1.40;99.90;;;;;;5014320;28;20038;-74
2021/12/21 02:20:42;;;;;;;26.65;14.32;;;-1.30;99.90;;;;;;5011807;28;20026;-74
2021/12/21 02:23:14;;;;;;;29.58;14.30;;;-1.30;99.90;;;;;;5018107;28;20697;-74
2021/12/21 02:30:44;;;;;;;20.17;12.00;;;-1.30;99.90;;;;;;5012302;28;20030;-74
2021/12/21 02:33:11;;;;;;;24.20;12.55;;;-1.40;99.90;;;;;;5015525;28;20046;-74
2021/12/21 02:35:37;;;;;;;24.00;13.35;;;-1.50;99.90;;;;;;5015491;28;20042;-74
2021/12/21 02:38:03;;;;;;;40.28;17.45;;;-1.60;99.90;;;;;;5016486;28;20037;-74
2021/12/21 02:40:29;;;;;;;35.58;18.42;;;-1.90;99.90;;;;;;5015972;28;20026;-75
2021/12/21 02:42:55;;;;;;;89.35;17.50;;;-2.10;99.90;;;;;;5015819;28;20084;-74
2021/12/21 02:45:20;;;;;;;36.55;17.95;;;-2.30;99.90;;;;;;5016276;28;20549;-74
2021/12/21 02:47:46;;;;;;;79.00;18.60;;;-2.40;99.90;;;;;;5021528;28;20083;-74
2021/12/21 02:50:12;;;;;;;32.70;17.05;;;-2.50;99.90;;;;;;5017915;28;20046;-74
2021/12/21 02:52:37;;;;;;;35.42;17.80;;;-2.60;99.90;;;;;;5016130;28;20047;-75
2021/12/21 02:55:05;;;;;;;32.90;17.27;;;-2.60;99.90;;;;;;5019558;28;20115;-74
2021/12/21 02:57:30;;;;;;;29.38;15.32;;;-2.70;99.90;;;;;;5011302;28;20037;-74
2021/12/21 02:59:56;;;;;;;65.97;15.80;;;-2.70;99.90;;;;;;5020691;28;20037;-74
2021/12/21 03:02:22;;;;;;;25.65;14.02;;;-2.70;99.90;;;;;;5016149;28;20025;-74
2021/12/21 03:04:50;;;;;;;39.50;14.43;;;-2.70;99.90;;;;;;5020857;28;20041;-74
2021/12/21 03:10:02;;;;;;;27.08;14.20;;;-2.80;99.90;;;;;;5022761;28;20068;-74
2021/12/21 03:13:51;;;;;;;22.60;13.45;;;-2.80;99.90;;;;;;5025611;28;20481;-74
2021/12/21 03:15:14;;;;;;;36.70;15.05;;;-2.80;99.90;;;;;;5022866;28;20029;-74
2021/12/21 03:17:40;;;;;;;23.80;13.80;;;-2.80;99.90;;;;;;5032576;28;20033;-74
2021/12/21 03:20:06;;;;;;;24.45;14.18;;;-2.80;99.90;;;;;;5020408;28;20116;-75
2021/12/21 03:22:31;;;;;;;25.77;14.57;;;-2.80;99.90;;;;;;5034379;28;20030;-74
2021/12/21 03:24:57;;;;;;;33.45;12.88;;;-2.70;99.90;;;;;;5036790;28;20033;-74
2021/12/21 03:27:23;;;;;;;26.90;12.73;;;-2.70;99.90;;;;;;5028076;28;20370;-74
2021/12/21 03:29:48;;;;;;;22.83;12.77;;;-2.70;99.90;;;;;;5012368;28;20022;-74
2021/12/21 03:32:14;;;;;;;27.58;13.95;;;-2.70;99.90;;;;;;5019169;28;20133;-74
2021/12/21 03:34:40;;;;;;;20.35;11.88;;;-2.60;99.90;;;;;;5034047;28;20032;-74
2021/12/21 03:37:11;;;;;;;18.23;11.20;;;-2.40;99.90;;;;;;5021851;28;20080;-74
2021/12/21 03:39:41;;;;;;;19.80;11.32;;;-2.30;99.90;;;;;;5027432;28;20025;-74
2021/12/21 03:42:08;;;;;;;18.48;11.00;;;-2.30;99.90;;;;;;5026821;28;20025;-74
2021/12/21 03:44:34;;;;;;;18.23;11.13;;;-2.30;99.90;;;;;;5022721;28;20065;-74
2021/12/21 03:47:00;;;;;;;19.55;10.70;;;-2.40;99.90;;;;;;5020245;28;20030;-74
2021/12/21 03:52:00;;;;;;;16.10;10.15;;;-2.50;99.90;;;;;;5021194;28;20244;-74
2021/12/21 03:54:26;;;;;;;23.23;13.15;;;-2.60;99.90;;;;;;5021644;28;20068;-74
2021/12/21 03:56:52;;;;;;;22.23;12.35;;;-2.60;99.90;;;;;;5026966;28;20029;-74
2021/12/21 03:59:19;;;;;;;21.90;12.95;;;-2.70;99.90;;;;;;5020947;28;20030;-74
2021/12/21 04:01:45;;;;;;;23.05;13.10;;;-2.80;99.90;;;;;;5020580;28;20369;-74
2021/12/21 04:04:10;;;;;;;25.75;14.30;;;-2.80;99.90;;;;;;5017093;28;20034;-74
2021/12/21 04:06:36;;;;;;;27.75;13.02;;;-2.90;99.90;;;;;;5029636;28;20021;-75
2021/12/21 04:09:07;;;;;;;27.52;13.15;;;-2.90;99.90;;;;;;5021817;28;20032;-74
2021/12/21 04:11:33;;;;;;;22.27;12.48;;;-3.00;99.90;;;;;;5026130;28;20757;-75
2021/12/21 04:14:00;;;;;;;24.60;13.15;;;-3.10;99.90;;;;;;5019871;28;20034;-75
2021/12/21 04:16:26;;;;;;;19.27;11.32;;;-3.20;99.90;;;;;;5030602;28;20056;-74
2021/12/21 04:18:52;;;;;;;18.83;11.30;;;-3.20;99.90;;;;;;5026700;28;20033;-74
2021/12/21 04:21:17;;;;;;;19.33;11.77;;;-3.10;99.90;;;;;;5034708;28;20051;-74
2021/12/21 04:23:44;;;;;;;27.45;11.32;;;-3.10;99.90;;;;;;5036751;28;20025;-74
2021/12/21 04:26:11;;;;;;;21.55;12.60;;;-3.20;99.90;;;;;;5022872;28;20021;-74
2021/12/21 04:28:38;;;;;;;22.63;11.38;;;-3.20;99.90;;;;;;5037182;28;20064;-74
2021/12/21 04:31:05;;;;;;;47.40;12.15;;;-3.30;99.90;;;;;;5025475;28;20084;-74
2021/12/21 04:33:32;;;;;;;23.95;11.63;;;-3.30;99.90;;;;;;5023331;28;20049;-75
2021/12/21 04:35:58;;;;;;;43.45;11.48;;;-3.30;99.90;;;;;;5029154;28;20038;-74
2021/12/21 04:38:30;;;;;;;22.38;11.43;;;-3.40;99.90;;;;;;5019097;28;20044;-74
2021/12/21 04:41:05;;;;;;;20.38;12.02;;;-3.50;99.90;;;;;;5036206;28;20511;-74
2021/12/21 04:43:30;;;;;;;28.90;12.07;;;-3.50;99.90;;;;;;5030101;28;20629;-74
2021/12/21 04:45:56;;;;;;;23.10;10.63;;;-3.50;99.90;;;;;;5022941;28;20033;-75
2021/12/21 04:48:22;;;;;;;26.55;14.65;;;-3.50;99.90;;;;;;5018591;28;20448;-73
2021/12/21 04:50:48;;;;;;;26.35;14.75;;;-3.40;99.90;;;;;;5020547;28;20037;-75
2021/12/21 04:53:14;;;;;;;24.05;13.90;;;-3.30;99.90;;;;;;5026821;28;20030;-74
2021/12/21 04:55:40;;;;;;;34.83;15.57;;;-3.20;99.90;;;;;;5020578;28;20098;-74
2021/12/21 04:58:06;;;;;;;24.55;14.23;;;-3.20;99.90;;;;;;5028561;28;20086;-74
2021/12/21 05:00:33;;;;;;;26.90;13.95;;;-3.20;99.90;;;;;;5025111;28;20061;-74
2021/12/21 05:02:59;;;;;;;24.83;12.20;;;-3.20;99.90;;;;;;5033770;28;20103;-74
2021/12/21 05:05:24;;;;;;;22.92;13.13;;;-3.20;99.90;;;;;;5018084;28;20160;-74
2021/12/21 05:08:04;;;;;;;35.70;14.98;;;-3.20;99.90;;;;;;5029840;28;20029;-74
2021/12/21 05:10:30;;;;;;;25.63;14.27;;;-3.20;99.90;;;;;;5021394;28;20603;-75
2021/12/21 05:12:55;;;;;;;25.00;14.02;;;-3.20;99.90;;;;;;5026923;28;20124;-75
2021/12/21 05:15:21;;;;;;;24.90;12.32;;;-3.10;99.90;;;;;;5026958;28;20501;-75
2021/12/21 05:17:46;;;;;;;25.27;12.60;;;-3.10;99.90;;;;;;5021901;28;20048;-75
2021/12/21 05:20:12;;;;;;;25.23;12.55;;;-3.10;99.90;;;;;;5015639;28;20037;-75
2021/12/21 05:22:37;;;;;;;22.85;11.98;;;-3.10;99.90;;;;;;5017714;28;20092;-75
2021/12/21 05:25:04;;;;;;;19.10;12.00;;;-3.10;99.90;;;;;;5015470;28;20104;-76
2021/12/21 05:27:29;;;;;;;22.05;11.77;;;-3.10;99.90;;;;;;5017467;28;20465;-75
2021/12/21 05:29:55;;;;;;;18.20;11.93;;;-3.00;99.90;;;;;;5015102;28;20121;-74
2021/12/21 05:32:21;;;;;;;19.23;12.45;;;-3.00;99.90;;;;;;5015765;28;20056;-75
2021/12/21 05:34:46;;;;;;;18.15;11.15;;;-2.90;99.90;;;;;;5014138;28;20037;-74
2021/12/21 05:37:12;;;;;;;23.02;12.15;;;-3.00;99.90;;;;;;5017818;28;20034;-74
2021/12/21 05:39:50;;;;;;;18.55;11.55;;;-2.90;99.90;;;;;;5014433;28;20061;-74
2021/12/21 05:42:15;;;;;;;17.27;10.57;;;-2.80;99.90;;;;;;5025290;28;20405;-74
2021/12/21 05:44:41;;;;;;;17.48;10.27;;;;;;;;;;5032460;28;20030;-74
2021/12/21 05:47:07;;;;;;;15.30;10.15;;;-2.60;99.90;;;;;;5022227;28;20029;-74
2021/12/21 05:49:34;;;;;;;23.45;12.63;;;-2.60;99.90;;;;;;5016931;28;20029;-75
2021/12/21 05:52:00;;;;;;;22.05;12.48;;;-2.60;99.90;;;;;;4322671;28;10000468;-75
2021/12/21 05:54:25;;;;;;;21.35;13.02;;;-2.70;99.90;;;;;;5032326;28;20112;-75
2021/12/21 05:56:51;;;;;;;30.65;12.85;;;-2.80;99.90;;;;;;5024215;28;20041;-74
2021/12/21 05:59:17;;;;;;;21.38;12.10;;;-2.80;99.90;;;;;;5011390;28;20249;-77
2021/12/21 06:01:42;;;;;;;18.55;11.65;;;-2.80;99.90;;;;;;5020932;28;20080;-76
2021/12/21 06:04:08;;;;;;;22.02;12.93;;;-3.00;99.90;;;;;;5017679;28;20064;-77
2021/12/21 06:06:34;;;;;;;23.33;12.15;;;-3.10;99.90;;;;;;5029359;28;20025;-77
2021/12/21 06:09:06;;;;;;;39.67;11.88;;;-3.10;99.90;;;;;;5020689;28;20086;-78
2021/12/21 06:11:36;;;;;;;15.55;10.00;;;-3.20;99.90;;;;;;5014865;28;20041;-77
2021/12/21 06:14:17;;;;;;;21.13;11.98;;;-3.20;99.90;;;;;;5023823;28;20488;-78
2021/12/21 06:27:40;;;;;;;22.65;12.07;;;-3.20;99.90;;;;;;5025322;28;20072;-77
2021/12/21 06:30:07;;;;;;;21.05;12.07;;;-3.10;99.90;;;;;;5029696;28;20082;-77
2021/12/21 06:32:33;;;;;;;31.55;13.38;;;-3.10;99.90;;;;;;5031070;28;20077;-77
2021/12/21 06:34:59;;;;;;;28.92;12.68;;;-2.90;99.90;;;;;;5011340;28;20461;-77
2021/12/21 06:37:24;;;;;;;26.23;11.93;;;-2.70;99.90;;;;;;5023702;28;20484;-78
2021/12/21 06:39:50;;;;;;;21.27;11.98;;;-2.50;99.90;;;;;;5029908;28;20044;-77
2021/12/21 06:42:16;;;;;;;41.83;11.45;;;-2.40;99.90;;;;;;5028229;28;20072;-78
2021/12/21 06:44:43;;;;;;;71.53;12.07;;;-2.30;99.90;;;;;;5041843;28;20558;-77
2021/12/21 06:52:40;;;;;;;19.08;10.10;;;-2.10;99.90;;;;;;5019814;28;20631;-78
2021/12/21 06:55:07;;;;;;;17.20;10.82;;;-2.20;99.90;;;;;;5027518;28;20042;-77
2021/12/21 06:57:34;;;;;;;16.70;10.25;;;-2.40;99.90;;;;;;5025007;28;20108;-77
2021/12/21 07:00:00;;;;;;;16.98;10.93;;;-2.50;99.90;;;;;;5024985;28;20841;-77
2021/12/21 07:02:26;;;;;;;18.38;10.77;;;-2.70;99.90;;;;;;5028172;28;20301;-77
2021/12/21 07:04:52;;;;;;;19.85;11.02;;;-2.80;99.90;;;;;;5033744;28;20121;-78
2021/12/21 07:07:18;;;;;;;15.90;9.82;;;-3.00;99.90;;;;;;5030860;28;20029;-77
2021/12/21 07:09:47;;;;;;;19.65;10.25;;;-3.00;99.90;;;;;;5021260;28;20022;-78
2021/12/21 07:20:19;;;;;;;19.00;10.93;;;-3.30;99.90;;;;;;5024976;28;20032;-78
2021/12/21 07:22:45;;;;;;;22.23;12.57;;;-3.30;99.90;;;;;;5034700;28;20021;-78
2021/12/21 07:25:10;;;;;;;19.48;10.90;;;-3.30;99.90;;;;;;5021469;28;20496;-78
2021/12/21 07:27:36;;;;;;;19.50;10.93;;;-3.20;99.90;;;;;;5045896;28;20033;-78
2021/12/21 07:30:04;;;;;;;19.40;11.57;;;-3.30;99.90;;;;;;5025877;28;20033;-77
2021/12/21 07:32:29;;;;;;;20.05;11.85;;;-3.30;99.90;;;;;;5033739;28;20045;-78
2021/12/21 07:34:55;;;;;;;19.60;11.65;;;-3.30;99.90;;;;;;5035026;28;20378;-78
2021/12/21 07:37:21;;;;;;;19.00;11.45;;;-3.30;99.90;;;;;;5046918;28;20032;-78
2021/12/21 07:39:47;;;;;;;21.50;12.93;;;-3.30;99.90;;;;;;5042064;28;20049;-78
2021/12/21 07:42:12;;;;;;;21.27;13.20;;;-3.30;99.90;;;;;;5024875;28;20414;-78
2021/12/21 07:44:38;;;;;;;19.02;12.00;;;-3.30;99.90;;;;;;5029148;28;20158;-78
2021/12/21 07:47:04;;;;;;;47.05;11.82;;;-3.30;99.90;;;;;;5022968;28;20030;-78
2021/12/21 07:49:30;;;;;;;18.23;11.48;;;-3.40;99.90;;;;;;5029087;28;20512;-78
2021/12/21 07:51:56;;;;;;;20.50;11.55;;;-3.40;99.90;;;;;;5033817;28;20071;-78
2021/12/21 07:54:22;;;;;;;23.52;12.07;;;-3.40;99.90;;;;;;5048429;28;20028;-78
2021/12/21 07:56:48;;;;;;;23.05;12.18;;;-3.40;99.90;;;;;;5033977;28;20028;-78
2021/12/21 07:59:14;;;;;;;26.58;12.02;;;-3.30;99.90;;;;;;5014780;28;20030;-78
2021/12/21 08:01:40;;;;;;;23.30;12.00;;;-3.30;99.90;;;;;;5028997;28;20540;-78
2021/12/21 08:04:09;;;;;;;16.73;10.30;;;-3.20;99.90;;;;;;5035946;28;20025;-76
2021/12/21 08:06:36;;;;;;;19.23;11.38;;;-3.20;99.90;;;;;;5029291;28;20018;-74
2021/12/21 08:09:03;;;;;;;18.05;11.40;;;-3.20;99.90;;;;;;5040368;28;20035;-77
2021/12/21 08:14:03;;;;;;;20.13;10.90;;;-3.10;99.90;;;;;;5026143;28;20026;-74
2021/12/21 08:16:28;;;;;;;18.75;11.35;;;-3.10;99.90;;;;;;5024569;28;20445;-74
2021/12/21 08:18:54;;;;;;;19.38;11.23;;;-3.00;99.90;;;;;;5027373;28;20038;-75
2021/12/21 08:21:22;;;;;;;17.42;9.52;;;-3.00;99.90;;;;;;5014893;28;20088;-75
2021/12/21 08:23:48;;;;;;;18.00;10.90;;;-3.00;99.90;;;;;;5048938;28;20485;-75
2021/12/21 08:26:14;;;;;;;19.15;11.75;;;-3.00;99.90;;;;;;5025553;28;20026;-79
2021/12/21 08:28:40;;;;;;;17.75;11.05;;;-3.00;99.90;;;;;;5027284;28;20025;-76
2021/12/21 08:31:10;;;;;;;20.20;11.90;;;-3.00;99.90;;;;;;5036884;28;20548;-81
2021/12/21 08:33:36;;;;;;;17.42;11.23;;;-3.00;99.90;;;;;;5037053;28;20057;-80
2021/12/21 08:36:03;;;;;;;23.35;12.60;;;-2.80;99.90;;;;;;5025383;28;20416;-78
2021/12/21 08:38:31;;;;;;;21.30;11.65;;;-2.80;99.90;;;;;;5030027;28;20021;-77
2021/12/21 08:40:58;;;;;;;22.33;12.25;;;-2.80;99.90;;;;;;5038608;28;20033;-76
2021/12/21 08:43:25;;;;;;;21.02;11.05;;;-2.70;99.90;;;;;;5022914;28;20068;-78
2021/12/21 08:45:52;;;;;;;18.02;11.35;;;-2.60;99.90;;;;;;5043358;28;20037;-73
2021/12/21 08:48:19;;;;;;;20.90;12.57;;;-2.30;99.90;;;;;;5028575;28;20030;-77
2021/12/21 08:50:46;;;;;;;24.70;11.35;;;-2.20;99.90;;;;;;5028362;28;20026;-81
2021/12/21 08:53:13;;;;;;;28.08;11.85;;;-2.10;99.90;;;;;;5029952;28;20030;-77
2021/12/21 08:55:41;;;;;;;19.00;11.10;;;-2.20;99.90;;;;;;5024726;28;20041;-75
2021/12/21 08:58:07;;;;;;;18.40;11.23;;;-2.10;99.90;;;;;;5044051;28;20044;-79
2021/12/21 09:00:33;;;;;;;22.33;11.77;;;-2.00;99.90;;;;;;5025605;28;20037;-82
2021/12/21 09:02:59;;;;;;;17.05;11.02;;;-2.00;99.90;;;;;;5015552;28;20025;-78
2021/12/21 09:05:27;;;;;;;30.60;11.95;;;-1.90;99.90;;;;;;5037442;28;20032;-78
2021/12/21 09:07:54;;;;;;;15.75;10.95;;;-1.90;99.90;;;;;;5037052;28;20489;-79
2021/12/21 09:10:22;;;;;;;34.67;10.95;;;-1.80;99.90;;;;;;5019136;28;20030;-79
2021/12/21 09:12:49;;;;;;;17.15;11.48;;;-1.90;99.90;;;;;;5043827;28;20033;-75
2021/12/21 09:15:16;;;;;;;19.85;11.30;;;-2.00;99.90;;;;;;5030440;28;20028;-77
2021/12/21 09:17:44;;;;;;;15.88;10.75;;;-2.10;99.90;;;;;;5045714;28;20469;-77
2021/12/21 09:20:15;;;;;;;17.90;11.57;;;-2.20;99.90;;;;;;5028972;28;20108;-75
2021/12/21 09:22:41;;;;;;;26.83;12.15;;;-2.20;99.90;;;;;;5027200;28;20018;-80
2021/12/21 09:25:07;;;;;;;17.80;12.15;;;-2.30;99.90;;;;;;5037592;28;20044;-77
2021/12/21 09:27:33;;;;;;;44.13;12.43;;;-2.30;99.90;;;;;;5015127;28;20057;-76
2021/12/21 09:29:59;;;;;;;25.58;13.52;;;-2.30;99.90;;;;;;5046401;28;20053;-77
2021/12/21 09:32:25;;;;;;;21.35;13.25;;;-2.30;99.90;;;;;;5024192;28;20053;-77
2021/12/21 09:34:51;;;;;;;21.58;13.40;;;-2.40;99.90;;;;;;5032839;28;20060;-76
2021/12/21 09:37:20;;;;;;;30.65;12.75;;;-2.30;99.90;;;;;;5020844;28;20053;-77
2021/12/21 09:39:51;;;;;;;20.73;11.90;;;-2.20;99.90;;;;;;5027277;28;20045;-76
2021/12/21 09:42:20;;;;;;;31.75;14.00;;;-2.30;99.90;;;;;;5033758;28;20033;-80
2021/12/21 09:44:47;;;;;;;23.65;13.50;;;-2.10;99.90;;;;;;5009436;28;20029;-79
2021/12/21 09:47:13;;;;;;;22.77;13.02;;;-2.00;99.90;;;;;;5023442;28;20040;-77
2021/12/21 09:49:40;;;;;;;22.23;13.32;;;-1.90;99.90;;;;;;5023212;28;20034;-76
2021/12/21 09:52:09;;;;;;;31.15;13.90;;;-1.80;99.90;;;;;;5025112;28;20487;-76
2021/12/21 09:54:36;;;;;;;25.52;13.98;;;-1.70;99.90;;;;;;5031818;28;20041;-75
2021/12/21 09:57:03;;;;;;;24.17;13.50;;;-1.60;99.90;;;;;;5025943;28;20124;-74
2021/12/21 09:59:29;;;;;;;27.30;12.93;;;-1.50;99.90;;;;;;5024476;28;20044;-74
2021/12/21 10:01:56;;;;;;;39.08;13.70;;;-1.40;99.90;;;;;;5020173;28;20041;-75
2021/12/21 10:04:26;;;;;;;31.77;13.57;;;-1.20;99.90;;;;;;5016743;28;20036;-74
2021/12/21 10:06:54;;;;;;;77.82;15.15;;;-1.10;99.90;;;;;;5024073;28;20061;-74
2021/12/21 10:09:24;;;;;;;41.10;14.88;;;-1.10;99.90;;;;;;5024436;28;20030;-75
2021/12/21 10:11:53;;;;;;;24.10;14.68;;;-1.00;99.90;;;;;;5026434;28;20116;-74
2021/12/21 10:14:23;;;;;;;55.65;15.55;;;-1.00;99.90;;;;;;5027351;28;20034;-74
2021/12/21 10:17:07;;;;;;;27.02;14.52;;;-1.00;99.90;;;;;;5034848;28;20033;-74
2021/12/21 10:19:34;;;;;;;22.70;13.15;;;-0.90;99.90;;;;;;5035024;28;20041;-74
2021/12/21 10:22:18;;;;;;;51.72;15.00;;;-0.90;99.90;;;;;;5030388;28;20144;-75
2021/12/21 10:24:49;;;;;;;29.58;15.45;;;-1.00;99.90;;;;;;5021741;28;20053;-74
2021/12/21 10:27:18;;;;;;;23.13;14.73;;;-1.10;99.90;;;;;;5021967;28;20030;-74
2021/12/21 10:29:46;;;;;;;24.85;15.13;;;-1.20;99.90;;;;;;5028616;28;20033;-74
2021/12/21 10:32:17;;;;;;;28.20;16.27;;;-1.40;99.90;;;;;;5030055;28;20049;-74
2021/12/21 10:34:54;;;;;;;34.10;19.17;;;-1.40;99.90;;;;;;5031727;28;20120;-74
2021/12/21 10:37:23;;;;;;;47.97;22.55;;;-1.40;99.90;;;;;;5033727;28;20037;-74
2021/12/21 10:39:49;;;;;;;35.35;17.38;;;-1.40;99.90;;;;;;5032986;28;20034;-74
2021/12/21 10:42:15;;;;;;;38.38;18.05;;;-1.50;99.90;;;;;;5016696;28;20108;-74
2021/12/21 10:44:45;;;;;;;31.42;17.80;;;-1.60;99.90;;;;;;5027258;28;20083;-74
2021/12/21 10:47:13;;;;;;;66.45;18.75;;;-1.60;99.90;;;;;;5030593;28;20505;-74
2021/12/21 10:49:40;;;;;;;39.50;17.95;;;-1.60;99.90;;;;;;5022721;28;20029;-73
2021/12/21 10:52:09;;;;;;;33.28;18.95;;;-1.70;99.90;;;;;;5014083;28;20025;-73
2021/12/21 10:54:43;;;;;;;32.17;18.50;;;-1.70;99.90;;;;;;5023657;28;20168;-74
2021/12/21 10:57:31;;;;;;;35.40;19.88;;;-1.60;99.90;;;;;;5013756;28;20038;-73
2021/12/21 11:00:00;;;;;;;33.85;19.95;;;-1.60;99.90;;;;;;5019914;28;20098;-73
2021/12/21 11:02:33;;;;;;;34.42;19.30;;;-1.60;99.90;;;;;;5016917;28;20029;-73
2021/12/21 11:05:01;;;;;;;38.15;21.35;;;-1.60;99.90;;;;;;5013922;28;20439;-73
2021/12/21 11:09:58;;;;;;;37.72;21.42;;;-1.50;99.90;;;;;;5019865;28;20088;-74
2021/12/21 11:12:25;;;;;;;50.10;20.83;;;-1.50;99.90;;;;;;5007854;28;20222;-74
2021/12/21 11:14:54;;;;;;;37.45;21.90;;;-1.50;99.90;;;;;;5012155;28;20385;-74
2021/12/21 11:17:20;;;;;;;42.70;22.33;;;-1.50;99.90;;;;;;5028416;28;20029;-75
2021/12/21 11:19:46;;;;;;;40.70;22.38;;;-1.60;99.90;;;;;;5014520;28;20026;-74
2021/12/21 11:22:13;;;;;;;39.88;22.00;;;-1.60;99.90;;;;;;5018969;28;20494;-74
2021/12/21 11:24:39;;;;;;;40.83;21.95;;;-1.50;99.90;;;;;;5023436;28;20381;-74
2021/12/21 11:27:05;;;;;;;40.88;23.25;;;-1.40;99.90;;;;;;5028361;28;20030;-75
2021/12/21 11:29:34;;;;;;;42.42;23.15;;;-1.50;99.90;;;;;;5026278;28;20073;-74
2021/12/21 11:32:03;;;;;;;42.45;23.35;;;-1.40;99.90;;;;;;5022611;28;20029;-75
2021/12/21 11:34:33;;;;;;;43.92;23.80;;;-1.30;99.90;;;;;;5030468;28;20040;-74
2021/12/21 11:39:44;;;;;;;59.25;23.98;;;-1.30;99.90;;;;;;5011651;28;20029;-75
2021/12/21 11:42:24;;;;;;;42.97;23.17;;;-1.40;99.90;;;;;;5027280;28;20026;-75
2021/12/21 11:45:03;;;;;;;51.45;23.27;;;-1.30;99.90;;;;;;5027101;28;20091;-74
2021/12/21 11:47:41;;;;;;;39.38;22.02;;;-1.30;99.90;;;;;;5028486;28;20040;-74
2021/12/21 11:50:09;;;;;;;40.10;22.73;;;-1.30;99.90;;;;;;5031423;28;20394;-74
2021/12/21 11:52:48;;;;;;;39.60;22.52;;;-1.20;99.90;;;;;;5021345;28;20084;-74
2021/12/21 11:55:16;;;;;;;60.97;23.90;;;-1.20;99.90;;;;;;5027262;28;20026;-74
2021/12/21 11:57:52;;;;;;;54.15;25.02;;;-1.20;99.90;;;;;;5011563;28;20026;-74
2021/12/21 12:00:20;;;;;;;49.40;24.52;;;-1.30;99.90;;;;;;5023773;28;20109;-75
2021/12/21 12:02:46;;;;;;;42.33;22.92;;;-1.40;99.90;;;;;;5030640;28;20022;-74
2021/12/21 12:05:16;;;;;;;59.08;22.70;;;-1.30;99.90;;;;;;5016448;28;20072;-74
2021/12/21 12:07:42;;;;;;;42.97;23.88;;;-1.30;99.90;;;;;;5013574;28;20509;-74
2021/12/21 12:10:10;;;;;;;48.83;24.80;;;-1.40;99.90;;;;;;5019448;28;20022;-74
2021/12/21 12:12:36;;;;;;;44.25;25.30;;;-1.40;99.90;;;;;;5028349;28;20029;-74
2021/12/21 12:15:05;;;;;;;43.78;24.77;;;-1.40;99.90;;;;;;5030240;28;20117;-74
2021/12/21 12:17:31;;;;;;;47.00;23.75;;;-1.30;99.90;;;;;;5025344;28;20038;-74
2021/12/21 12:20:05;;;;;;;44.28;24.98;;;-1.20;99.90;;;;;;5010472;28;20034;-74
2021/12/21 12:22:39;;;;;;;43.28;24.17;;;-1.20;99.90;;;;;;5018344;28;20033;-74
2021/12/21 12:25:16;;;;;;;55.05;26.52;;;-1.20;99.90;;;;;;5022781;28;20034;-75
2021/12/21 12:27:48;;;;;;;48.60;26.17;;;-1.10;99.90;;;;;;5011380;28;20041;-75
2021/12/21 12:30:20;;;;;;;36.42;19.92;;;-1.10;99.90;;;;;;5018070;28;20481;-74
2021/12/21 12:32:55;;;;;;;38.70;18.67;;;-1.10;99.90;;;;;;5016797;28;20048;-74
2021/12/21 12:35:25;;;;;;;42.60;24.60;;;-1.10;99.90;;;;;;5017784;28;20033;-74
2021/12/21 12:38:02;;;;;;;46.38;25.83;;;-1.20;99.90;;;;;;5014839;28;20030;-74
2021/12/21 12:40:39;;;;;;;47.33;25.75;;;-1.20;99.90;;;;;;5021103;28;20482;-73
2021/12/21 12:43:08;;;;;;;51.63;26.08;;;-1.10;99.90;;;;;;5019402;28;20028;-74
2021/12/21 12:45:45;;;;;;;48.00;25.77;;;-1.10;99.90;;;;;;5011741;28;20378;-74
2021/12/21 12:48:29;;;;;;;41.40;23.92;;;-1.20;99.90;;;;;;5017334;28;20254;-75
2021/12/21 12:50:57;;;;;;;50.95;26.48;;;-1.10;99.90;;;;;;5026221;28;20475;-73
2021/12/21 12:53:43;;;;;;;45.90;25.67;;;-1.00;99.90;;;;;;5029820;28;20148;-73
2021/12/21 12:56:12;;;;;;;67.55;24.50;;;-0.80;99.90;;;;;;5021655;28;20087;-74
2021/12/21 12:58:49;;;;;;;76.25;24.83;;;-0.60;99.90;;;;;;5023797;28;20040;-74
2021/12/21 13:01:21;;;;;;;49.28;24.60;;;-0.40;99.90;;;;;;5029408;28;20035;-75
2021/12/21 13:06:29;;;;;;;59.99;21.21;;;-0.20;99.90;;;;;;5248146;22;10001357;-76
2021/12/21 13:08:55;;;;;;;58.00;23.20;;;-0.20;99.90;;;;;;4969438;28;20034;-75
2021/12/21 13:11:26;;;;;;;37.78;20.88;;;-0.10;99.90;;;;;;4977529;28;20034;-76
2021/12/21 13:14:00;;;;;;;37.75;21.17;;;-0.10;99.90;;;;;;4986412;28;20070;-76
2021/12/21 13:16:28;;;;;;;52.72;22.98;;;-0.30;99.90;;;;;;4986238;28;20030;-76
2021/12/21 13:18:56;;;;;;;53.33;22.63;;;;;;;;;;4981764;28;20049;-75
2021/12/21 13:21:26;;;;;;;41.92;22.63;;;-0.30;99.90;;;;;;4983181;28;20116;-76
2021/12/21 13:24:01;;;;;;;35.86;21.90;;;-0.30;99.90;;;;;;4640568;28;10000548;-73
2021/12/21 13:26:45;;;;;;;44.20;23.67;;;-0.30;99.90;;;;;;4975469;28;21559;-73
2021/12/21 13:29:14;;;;;;;46.80;23.92;;;-0.20;99.90;;;;;;4977388;28;20045;-73
2021/12/21 13:31:41;;;;;;;62.00;24.50;;;-0.20;99.90;;;;;;4971621;28;20034;-72
2021/12/21 13:34:06;;;;;;;37.28;21.75;;;-0.20;99.90;;;;;;4984628;28;20042;-73
2021/12/21 13:36:38;;;;;;;48.15;24.05;;;-0.20;99.90;;;;;;4978312;28;20035;-73
2021/12/21 13:39:25;;;;;;;45.05;21.98;;;-0.20;99.90;;;;;;4981628;28;20045;-73
2021/12/21 13:41:55;;;;;;;41.05;22.77;;;-0.30;99.90;;;;;;4988385;28;20045;-73
2021/12/21 13:44:25;;;;;;;41.13;24.38;;;-0.50;99.90;;;;;;4983467;28;20038;-73
2021/12/21 13:46:52;;;;;;;41.40;24.60;;;-0.60;99.90;;;;;;4981119;28;20153;-73
2021/12/21 13:49:18;;;;;;;42.33;24.52;;;-0.70;99.90;;;;;;4982899;28;20125;-73
2021/12/21 13:51:52;;;;;;;47.33;27.33;;;-0.80;99.90;;;;;;4972921;28;20032;-73